createdAt,value
2017-08-21T00:00:10.684Z,2.47
2017-08-21T00:02:43.679Z,3.00
2017-08-21T00:05:13.201Z,3.30
2017-08-21T00:07:41.692Z,3.40
2017-08-21T00:10:18.233Z,2.90
2017-08-21T00:12:47.444Z,3.10
2017-08-21T00:15:27.073Z,2.93
2017-08-21T00:18:04.476Z,3.60
2017-08-21T00:20:33.000Z,3.17
2017-08-21T00:23:01.565Z,2.80
2017-08-21T00:25:30.145Z,3.17
2017-08-21T00:27:58.738Z,3.07
2017-08-21T00:30:39.125Z,3.17
2017-08-21T00:36:26.192Z,3.47
2017-08-21T00:38:55.234Z,2.97
2017-08-21T00:41:24.252Z,3.17
2017-08-21T00:43:52.988Z,2.90
2017-08-21T00:46:25.309Z,2.83
2017-08-21T00:49:05.054Z,2.57
2017-08-21T00:51:33.916Z,3.30
2017-08-21T00:54:02.403Z,3.23
2017-08-21T00:56:31.204Z,3.37
2017-08-21T00:59:04.085Z,2.97
2017-08-21T01:01:42.327Z,2.90
2017-08-21T01:04:12.522Z,3.23
2017-08-21T01:06:41.152Z,3.43
2017-08-21T01:09:09.817Z,3.23
2017-08-21T01:11:38.319Z,3.37
2017-08-21T01:14:10.722Z,2.90
2017-08-21T01:16:39.640Z,3.17
2017-08-21T01:19:08.158Z,3.87
2017-08-21T01:21:43.935Z,2.87
2017-08-21T01:24:16.197Z,3.70
2017-08-21T01:26:44.953Z,3.10
2017-08-21T01:29:24.661Z,3.13
2017-08-21T01:34:41.328Z,3.10
2017-08-21T01:37:10.871Z,2.87
2017-08-21T01:39:41.097Z,3.17
2017-08-21T01:42:24.849Z,3.60
2017-08-21T01:44:53.978Z,2.90
2017-08-21T01:47:22.678Z,3.10
2017-08-21T01:50:03.842Z,3.10
2017-08-21T01:52:34.824Z,3.30
2017-08-21T01:55:03.859Z,3.23
2017-08-21T01:57:49.673Z,2.90
2017-08-21T02:00:29.804Z,3.90
2017-08-21T02:02:58.971Z,3.60
2017-08-21T02:05:27.591Z,2.80
2017-08-21T02:07:56.089Z,4.03
2017-08-21T02:10:24.700Z,3.13
2017-08-21T02:12:53.245Z,4.03
2017-08-21T02:15:21.801Z,4.00
2017-08-21T02:17:50.394Z,3.53
2017-08-21T02:20:18.947Z,3.20
2017-08-21T02:22:47.698Z,4.10
2017-08-21T02:25:16.350Z,3.30
2017-08-21T02:31:06.549Z,3.70
2017-08-21T02:33:48.039Z,4.10
2017-08-21T02:36:24.830Z,3.77
2017-08-21T02:39:01.691Z,4.27
2017-08-21T02:41:40.312Z,4.07
2017-08-21T02:44:09.854Z,3.70
2017-08-21T02:46:48.819Z,3.70
2017-08-21T02:52:38.842Z,3.50
2017-08-21T02:58:02.328Z,3.93
2017-08-21T03:00:31.290Z,3.93
2017-08-21T03:02:59.869Z,4.10
2017-08-21T03:08:20.208Z,4.00
2017-08-21T03:10:49.323Z,3.47
2017-08-21T03:13:18.089Z,3.87
2017-08-21T03:15:46.745Z,4.17
2017-08-21T03:18:15.258Z,3.90
2017-08-21T03:20:43.941Z,4.03
2017-08-21T03:23:22.143Z,4.10
2017-08-21T03:25:51.215Z,4.37
2017-08-21T03:28:19.929Z,4.10
2017-08-21T03:30:48.765Z,3.70
2017-08-21T03:33:17.577Z,4.00
2017-08-21T03:35:46.392Z,3.40
2017-08-21T03:38:26.345Z,4.13
2017-08-21T03:41:13.358Z,3.47
2017-08-21T03:43:43.173Z,4.07
2017-08-21T03:46:11.917Z,3.60
2017-08-21T03:48:40.710Z,3.73
2017-08-21T03:51:09.438Z,3.10
2017-08-21T03:53:38.127Z,4.17
2017-08-21T03:56:25.714Z,3.90
2017-08-21T03:58:54.195Z,3.50
2017-08-21T04:01:22.733Z,3.40
2017-08-21T04:03:51.216Z,4.30
2017-08-21T04:06:25.001Z,3.97
2017-08-21T04:08:53.563Z,4.10
2017-08-21T04:11:22.216Z,3.60
2017-08-21T04:13:50.745Z,3.93
2017-08-21T04:16:19.400Z,4.20
2017-08-21T04:18:48.093Z,3.73
2017-08-21T04:21:17.066Z,3.37
2017-08-21T04:23:45.729Z,4.00
2017-08-21T04:26:14.299Z,3.80
2017-08-21T04:28:42.861Z,4.33
2017-08-21T04:31:11.406Z,5.30
2017-08-21T04:33:58.930Z,4.63
2017-08-21T04:36:28.362Z,4.27
2017-08-21T04:38:57.113Z,4.33
2017-08-21T04:41:25.631Z,4.07
2017-08-21T04:44:00.766Z,5.70
2017-08-21T04:46:47.143Z,4.53
2017-08-21T04:49:47.070Z,4.60
2017-08-21T04:52:39.284Z,4.93
2017-08-21T04:55:08.323Z,5.33
2017-08-21T04:57:37.098Z,5.10
2017-08-21T05:00:05.910Z,5.40
2017-08-21T05:03:26.150Z,5.20
2017-08-21T05:06:05.691Z,5.67
2017-08-21T05:08:34.392Z,5.30
2017-08-21T05:11:19.372Z,5.13
2017-08-21T05:14:00.554Z,4.97
2017-08-21T05:16:36.394Z,5.77
2017-08-21T05:19:04.838Z,4.90
2017-08-21T05:21:33.532Z,5.90
2017-08-21T05:24:01.838Z,5.67
2017-08-21T05:26:30.491Z,5.90
2017-08-21T05:28:58.773Z,5.67
2017-08-21T05:31:27.129Z,6.20
2017-08-21T05:33:55.491Z,5.90
2017-08-21T05:36:24.247Z,5.13
2017-08-21T05:38:52.662Z,5.40
2017-08-21T05:41:21.104Z,5.20
2017-08-21T05:43:49.424Z,6.13
2017-08-21T05:46:18.067Z,4.97
2017-08-21T05:48:46.546Z,5.47
2017-08-21T05:51:15.157Z,6.47
2017-08-21T05:53:43.728Z,5.87
2017-08-21T05:56:12.058Z,6.37
2017-08-21T05:58:40.479Z,5.90
2017-08-21T06:01:08.931Z,6.13
2017-08-21T06:03:45.601Z,6.27
2017-08-21T06:06:14.286Z,6.90
2017-08-21T06:08:42.594Z,5.83
2017-08-21T06:11:10.921Z,6.23
2017-08-21T06:13:39.583Z,6.73
2017-08-21T06:16:08.208Z,6.03
2017-08-21T06:18:36.603Z,5.47
2017-08-21T06:21:05.220Z,5.90
2017-08-21T06:23:33.468Z,5.87
2017-08-21T06:26:02.217Z,6.50
2017-08-21T06:28:30.570Z,5.33
2017-08-21T06:30:58.964Z,5.03
2017-08-21T06:33:28.235Z,5.50
2017-08-21T06:35:56.639Z,4.50
2017-08-21T06:38:24.928Z,5.00
2017-08-21T06:40:53.338Z,4.93
2017-08-21T06:43:21.640Z,5.47
2017-08-21T06:45:50.148Z,5.70
2017-08-21T06:48:19.059Z,5.57
2017-08-21T06:50:47.393Z,5.10
2017-08-21T06:53:15.693Z,6.03
2017-08-21T06:55:44.053Z,5.40
2017-08-21T06:58:12.350Z,6.10
2017-08-21T07:00:40.705Z,5.03
2017-08-21T07:03:09.152Z,5.57
2017-08-21T07:05:37.514Z,4.67
2017-08-21T07:08:06.889Z,5.00
2017-08-21T07:10:35.305Z,3.93
2017-08-21T07:13:03.653Z,4.80
2017-08-21T07:15:32.022Z,4.50
2017-08-21T07:18:00.381Z,5.13
2017-08-21T07:20:28.869Z,5.20
2017-08-21T07:22:57.312Z,4.80
2017-08-21T07:25:25.687Z,4.87
2017-08-21T07:27:54.027Z,5.27
2017-08-21T07:30:22.451Z,4.87
2017-08-21T07:32:50.788Z,4.37
2017-08-21T07:36:22.186Z,3.97
2017-08-21T07:38:50.572Z,3.80
2017-08-21T07:41:18.920Z,4.60
2017-08-21T07:43:47.219Z,4.20
2017-08-21T07:46:15.572Z,4.17
2017-08-21T07:48:43.900Z,4.20
2017-08-21T07:51:12.312Z,4.20
2017-08-21T07:53:40.589Z,4.37
2017-08-21T07:56:08.971Z,4.30
2017-08-21T07:58:37.254Z,3.97
2017-08-21T08:01:05.588Z,3.23
2017-08-21T08:03:33.892Z,4.13
2017-08-21T08:06:02.249Z,4.50
2017-08-21T08:08:30.532Z,3.80
2017-08-21T08:10:58.920Z,4.23
2017-08-21T08:13:27.243Z,3.70
2017-08-21T08:15:56.279Z,3.70
2017-08-21T08:18:24.548Z,3.57
2017-08-21T08:20:53.020Z,3.93
2017-08-21T08:23:21.288Z,3.90
2017-08-21T08:25:49.597Z,2.90
2017-08-21T08:28:17.853Z,4.10
2017-08-21T08:30:46.173Z,3.77
2017-08-21T08:33:14.432Z,4.17
2017-08-21T08:35:42.809Z,3.70
2017-08-21T08:38:11.210Z,3.40
2017-08-21T08:40:39.565Z,3.10
2017-08-21T08:43:07.913Z,3.80
2017-08-21T08:45:36.342Z,3.50
2017-08-21T08:48:04.621Z,3.47
2017-08-21T08:50:32.949Z,3.47
2017-08-21T08:53:01.279Z,4.17
2017-08-21T08:55:29.675Z,3.77
2017-08-21T08:57:58.092Z,3.90
2017-08-21T09:00:26.718Z,3.87
2017-08-21T09:02:55.073Z,3.90
2017-08-21T09:05:24.500Z,3.03
2017-08-21T09:07:52.843Z,2.97
2017-08-21T09:10:21.183Z,3.20
2017-08-21T09:12:50.472Z,3.03
2017-08-21T09:18:31.416Z,2.93
2017-08-21T09:20:59.792Z,3.20
2017-08-21T09:23:28.248Z,3.73
2017-08-21T09:25:56.877Z,2.57
2017-08-21T09:28:25.225Z,2.80
2017-08-21T09:30:53.674Z,2.90
2017-08-21T09:33:22.746Z,2.77
2017-08-21T09:35:51.104Z,2.40
2017-08-21T09:38:19.575Z,2.73
2017-08-21T09:40:48.014Z,2.83
2017-08-21T09:43:16.334Z,2.80
2017-08-21T09:45:44.675Z,3.03
2017-08-21T09:48:13.100Z,3.00
2017-08-21T09:50:41.492Z,2.90
2017-08-21T09:53:09.947Z,2.60
2017-08-21T09:55:38.807Z,3.13
2017-08-21T09:58:07.148Z,2.80
2017-08-21T10:00:35.486Z,2.67
2017-08-21T10:03:03.870Z,3.03
2017-08-21T10:05:32.263Z,2.80
2017-08-21T10:08:00.777Z,2.20
2017-08-21T10:10:29.289Z,2.07
2017-08-21T10:12:58.949Z,2.37
2017-08-21T10:15:27.637Z,2.70
2017-08-21T10:17:56.011Z,3.20
2017-08-21T10:20:24.928Z,2.53
2017-08-21T10:22:53.843Z,2.77
2017-08-21T10:25:22.295Z,1.90
2017-08-21T10:27:51.516Z,3.17
2017-08-21T10:30:20.859Z,2.40
2017-08-21T10:32:49.354Z,2.77
2017-08-21T10:35:17.744Z,2.43
2017-08-21T10:37:48.410Z,2.30
2017-08-21T10:40:16.999Z,2.50
2017-08-21T10:42:45.303Z,2.30
2017-08-21T10:45:16.171Z,2.17
2017-08-21T10:47:44.568Z,2.33
2017-08-21T10:50:12.993Z,2.70
2017-08-21T10:52:41.392Z,2.27
2017-08-21T10:55:10.036Z,2.40
2017-08-21T10:57:39.113Z,1.50
2017-08-21T11:00:08.519Z,1.70
2017-08-21T11:02:36.890Z,1.63
2017-08-21T11:05:05.381Z,2.00
2017-08-21T11:07:33.777Z,2.43
2017-08-21T11:10:02.170Z,1.90
2017-08-21T11:12:30.643Z,2.60
2017-08-21T11:14:59.084Z,1.80
2017-08-21T11:17:28.218Z,2.20
2017-08-21T11:19:56.700Z,2.30
2017-08-21T11:22:26.126Z,2.50
2017-08-21T11:24:54.575Z,2.23
2017-08-21T11:27:23.047Z,2.43
2017-08-21T11:29:52.670Z,2.87
2017-08-21T11:32:22.236Z,2.23
2017-08-21T11:34:51.394Z,2.70
2017-08-21T11:37:22.103Z,2.00
2017-08-21T11:39:50.554Z,3.10
2017-08-21T11:42:23.072Z,2.37
2017-08-21T11:44:55.063Z,2.40
2017-08-21T11:47:24.899Z,2.40
2017-08-21T11:49:53.322Z,1.90
2017-08-21T11:52:21.849Z,2.17
2017-08-21T11:54:53.314Z,2.60
2017-08-21T11:57:25.589Z,2.70
2017-08-21T11:59:54.885Z,2.70
2017-08-21T12:02:25.051Z,2.90
2017-08-21T12:04:53.393Z,3.20
2017-08-21T12:07:21.728Z,2.43
2017-08-21T12:09:50.056Z,2.70
2017-08-21T12:12:19.074Z,2.17
2017-08-21T12:14:47.435Z,2.83
2017-08-21T12:17:22.680Z,2.60
2017-08-21T12:19:51.074Z,2.47
2017-08-21T12:22:19.702Z,2.60
2017-08-21T12:24:48.684Z,2.37
2017-08-21T12:27:17.111Z,2.57
2017-08-21T12:29:45.432Z,2.80
2017-08-21T12:32:17.002Z,3.00
2017-08-21T12:34:45.345Z,2.70
2017-08-21T12:37:13.716Z,2.50
2017-08-21T12:39:41.989Z,2.93
2017-08-21T12:42:10.391Z,2.83
2017-08-21T12:44:39.463Z,2.40
2017-08-21T12:47:09.256Z,2.30
2017-08-21T12:49:37.540Z,2.33
2017-08-21T12:52:05.906Z,2.57
2017-08-21T12:54:34.234Z,2.23
2017-08-21T12:57:02.586Z,2.43
2017-08-21T12:59:31.062Z,2.03
2017-08-21T13:01:59.414Z,2.37
2017-08-21T13:04:27.753Z,2.57
2017-08-21T13:06:56.265Z,2.77
2017-08-21T13:09:25.514Z,2.47
2017-08-21T13:11:54.148Z,2.10
2017-08-21T13:14:22.563Z,2.60
2017-08-21T13:16:52.446Z,2.57
2017-08-21T13:19:20.781Z,2.60
2017-08-21T13:21:50.747Z,1.80
2017-08-21T13:24:19.038Z,2.03
2017-08-21T13:26:48.107Z,2.27
2017-08-21T13:29:16.407Z,1.80
2017-08-21T13:31:44.855Z,2.40
2017-08-21T13:34:13.120Z,2.43
2017-08-21T13:36:41.480Z,2.00
2017-08-21T13:39:16.514Z,1.50
2017-08-21T13:41:44.952Z,1.93
2017-08-21T13:44:14.486Z,2.50
2017-08-21T13:46:42.841Z,2.50
2017-08-21T13:49:11.281Z,2.00
2017-08-21T13:51:39.617Z,2.50
2017-08-21T13:54:07.985Z,1.93
2017-08-21T13:56:36.365Z,2.20
2017-08-21T13:59:04.664Z,1.80
2017-08-21T14:01:33.024Z,2.10
2017-08-21T14:04:01.865Z,1.60
2017-08-21T14:06:31.198Z,2.37
2017-08-21T14:08:59.881Z,1.90
2017-08-21T14:11:28.306Z,2.00
2017-08-21T14:13:56.697Z,2.03
2017-08-21T14:16:25.077Z,1.90
2017-08-21T14:18:56.774Z,2.13
2017-08-21T14:21:25.353Z,2.63
2017-08-21T14:23:53.899Z,2.30
2017-08-21T14:26:23.193Z,2.50
2017-08-21T14:28:51.633Z,2.80
2017-08-21T14:31:20.112Z,2.30
2017-08-21T14:33:56.566Z,2.37
2017-08-21T14:36:31.762Z,2.77
2017-08-21T14:39:00.089Z,2.47
2017-08-21T14:41:28.481Z,2.40
2017-08-21T14:43:57.660Z,2.53
2017-08-21T14:46:26.017Z,2.60
2017-08-21T14:51:36.011Z,2.30
2017-08-21T14:54:04.825Z,2.60
2017-08-21T14:56:34.215Z,2.70
2017-08-21T14:59:02.698Z,2.80
2017-08-21T15:01:31.080Z,3.20
2017-08-21T15:04:09.080Z,2.67
2017-08-21T15:06:38.521Z,2.17
2017-08-21T15:09:16.665Z,2.03
2017-08-21T15:11:45.206Z,1.90
2017-08-21T15:14:13.726Z,2.00
2017-08-21T15:16:42.200Z,1.50
2017-08-21T15:19:25.795Z,1.97
2017-08-21T15:21:58.566Z,1.50
2017-08-21T15:24:32.516Z,2.03
2017-08-21T15:27:08.005Z,1.53
2017-08-21T15:29:36.980Z,1.63
2017-08-21T15:32:25.357Z,1.83
2017-08-21T15:34:55.396Z,1.70
2017-08-21T15:37:23.775Z,1.23
2017-08-21T15:39:52.041Z,1.43
2017-08-21T15:42:20.979Z,2.33
2017-08-21T15:44:50.414Z,1.80
2017-08-21T15:47:20.691Z,1.53
2017-08-21T15:49:52.359Z,1.80
2017-08-21T15:52:25.756Z,1.77
2017-08-21T15:54:54.100Z,2.43
2017-08-21T15:57:22.628Z,1.97
2017-08-21T15:59:55.666Z,1.70
2017-08-21T16:02:28.354Z,2.27
2017-08-21T16:04:56.689Z,1.93
2017-08-21T16:08:09.007Z,1.97
2017-08-21T16:11:09.491Z,1.87
2017-08-21T16:13:37.891Z,1.90
2017-08-21T16:16:07.664Z,2.23
2017-08-21T16:18:37.761Z,2.73
2017-08-21T16:21:06.773Z,2.20
2017-08-21T16:23:35.072Z,2.33
2017-08-21T16:26:03.379Z,2.10
2017-08-21T16:28:31.706Z,2.23
2017-08-21T16:31:00.882Z,1.80
2017-08-21T16:33:31.787Z,1.97
2017-08-21T16:36:00.336Z,1.77
2017-08-21T16:38:36.418Z,1.73
2017-08-21T16:41:05.385Z,2.40
2017-08-21T16:43:34.545Z,2.20
2017-08-21T16:46:03.032Z,2.60
2017-08-21T16:48:31.579Z,2.37
2017-08-21T16:51:00.011Z,1.97
2017-08-21T16:53:28.332Z,2.50
2017-08-21T16:55:56.698Z,2.30
2017-08-21T16:58:25.132Z,2.13
2017-08-21T17:00:57.206Z,2.27
2017-08-21T17:03:31.903Z,1.67
2017-08-21T17:06:01.172Z,2.10
2017-08-21T17:08:31.339Z,2.00
2017-08-21T17:10:59.752Z,2.30
2017-08-21T17:13:28.419Z,2.60
2017-08-21T17:16:03.488Z,2.20
2017-08-21T17:18:32.593Z,2.20
2017-08-21T17:21:01.804Z,2.40
2017-08-21T17:23:32.116Z,2.90
2017-08-21T17:26:00.499Z,2.13
2017-08-21T17:28:28.915Z,2.40
2017-08-21T17:31:00.265Z,3.03
2017-08-21T17:33:29.826Z,3.20
2017-08-21T17:36:01.118Z,2.20
2017-08-21T17:38:29.481Z,2.70
2017-08-21T17:40:58.396Z,1.93
2017-08-21T17:43:26.987Z,2.43
2017-08-21T17:45:55.629Z,1.83
2017-08-21T17:48:25.617Z,1.93
2017-08-21T17:50:54.160Z,2.50
2017-08-21T17:53:22.696Z,2.30
2017-08-21T17:55:51.744Z,2.50
2017-08-21T17:58:22.527Z,2.40
2017-08-21T18:00:51.079Z,2.60
2017-08-21T18:03:22.145Z,2.47
2017-08-21T18:05:50.881Z,2.53
2017-08-21T18:08:21.285Z,2.40
2017-08-21T18:10:49.762Z,2.80
2017-08-21T18:13:18.946Z,2.73
2017-08-21T18:15:52.898Z,2.37
2017-08-21T18:18:22.089Z,3.50
2017-08-21T18:20:50.921Z,3.30
2017-08-21T18:23:25.089Z,2.70
2017-08-21T18:25:59.813Z,2.73
2017-08-21T18:28:57.791Z,2.53
2017-08-21T18:31:32.939Z,6.20
2017-08-21T18:34:03.965Z,3.50
2017-08-21T18:36:37.874Z,3.13
2017-08-21T18:39:07.074Z,2.87
2017-08-21T18:41:38.968Z,2.60
2017-08-21T18:44:09.688Z,2.50
2017-08-21T18:46:46.946Z,2.40
2017-08-21T18:49:18.855Z,6.30
2017-08-21T18:51:49.732Z,4.40
2017-08-21T18:54:18.987Z,4.07
2017-08-21T18:56:47.491Z,2.40
2017-08-21T18:59:19.739Z,2.70
2017-08-21T19:01:53.080Z,3.30
2017-08-21T19:04:23.813Z,3.67
2017-08-21T19:06:53.276Z,3.20
2017-08-21T19:09:25.631Z,2.80
2017-08-21T19:11:57.147Z,3.10
2017-08-21T19:14:30.855Z,2.90
2017-08-21T19:17:09.055Z,3.03
2017-08-21T19:19:43.557Z,2.40
2017-08-21T19:22:14.688Z,3.07
2017-08-21T19:24:50.980Z,3.07
2017-08-21T19:27:32.605Z,2.70
2017-08-21T19:30:05.541Z,3.13
2017-08-21T19:35:36.865Z,3.00
2017-08-21T19:38:06.596Z,2.87
2017-08-21T19:40:37.849Z,2.60
2017-08-21T19:43:18.685Z,2.90
2017-08-21T19:45:59.560Z,2.90
2017-08-21T19:48:30.987Z,2.60
2017-08-21T19:51:01.015Z,2.87
2017-08-21T19:53:32.942Z,2.73
2017-08-21T19:56:04.503Z,3.27
2017-08-21T19:58:37.784Z,3.20
2017-08-21T20:04:30.466Z,2.67
2017-08-21T20:07:39.114Z,2.80
2017-08-21T20:10:16.826Z,2.70
2017-08-21T20:12:46.418Z,3.20
2017-08-21T20:15:16.848Z,2.80
2017-08-21T20:17:46.394Z,2.47
2017-08-21T20:20:16.002Z,3.40
2017-08-21T20:22:46.331Z,3.90
2017-08-21T20:25:16.707Z,3.13
2017-08-21T20:27:48.498Z,2.57
2017-08-21T20:30:18.324Z,2.83
2017-08-21T20:32:47.906Z,2.90
2017-08-21T20:35:17.848Z,3.10
2017-08-21T20:37:49.332Z,2.90
2017-08-21T20:40:19.355Z,2.30
2017-08-21T20:42:49.092Z,2.97
2017-08-21T20:45:18.677Z,4.00
2017-08-21T20:47:48.902Z,3.23
2017-08-21T20:50:21.329Z,3.30
2017-08-21T20:52:51.277Z,3.20
2017-08-21T20:55:20.886Z,2.97
2017-08-21T20:57:50.469Z,3.10
2017-08-21T21:00:20.079Z,2.77
2017-08-21T21:02:49.829Z,2.97
2017-08-21T21:05:19.523Z,3.50
2017-08-21T21:07:50.264Z,2.63
2017-08-21T21:10:20.159Z,2.87
2017-08-21T21:12:53.217Z,2.60
2017-08-21T21:15:23.341Z,2.97
2017-08-21T21:17:53.773Z,2.70
2017-08-21T21:20:23.315Z,2.90
2017-08-21T21:22:54.928Z,3.10
2017-08-21T21:25:24.630Z,2.80
2017-08-21T21:27:55.750Z,3.20
2017-08-21T21:30:26.598Z,2.90
2017-08-21T21:33:33.761Z,2.63
2017-08-21T21:36:03.807Z,3.00
2017-08-21T21:38:32.882Z,3.20
2017-08-21T21:41:02.178Z,3.23
2017-08-21T21:43:31.469Z,2.53
2017-08-21T21:46:00.556Z,3.37
2017-08-21T21:48:29.613Z,2.70
2017-08-21T21:50:58.633Z,2.70
2017-08-21T21:53:27.668Z,2.90
2017-08-21T21:55:56.865Z,3.70
2017-08-21T21:58:59.579Z,2.67
2017-08-21T22:01:28.691Z,3.20
2017-08-21T22:05:56.743Z,2.63
2017-08-21T22:08:26.241Z,3.17
2017-08-21T22:10:56.005Z,2.73
2017-08-21T22:13:25.462Z,2.50
2017-08-21T22:15:55.290Z,2.70
2017-08-21T22:18:24.766Z,2.80
2017-08-21T22:20:54.370Z,2.87
2017-08-21T22:23:24.003Z,3.20
2017-08-21T22:25:53.536Z,2.43
2017-08-21T22:28:23.358Z,3.00
2017-08-21T22:30:53.302Z,2.60
2017-08-21T22:33:23.127Z,2.23
2017-08-21T22:35:52.540Z,2.30
2017-08-21T22:38:21.931Z,2.73
2017-08-21T22:40:52.163Z,2.80
2017-08-21T22:43:22.769Z,2.10
2017-08-21T22:45:52.262Z,3.07
2017-08-21T22:48:21.652Z,3.00
2017-08-21T22:50:53.164Z,2.50
2017-08-21T22:53:23.054Z,3.00
2017-08-21T22:55:55.526Z,2.93
2017-08-21T22:58:25.229Z,2.47
2017-08-21T23:00:54.961Z,2.53
2017-08-21T23:03:27.644Z,2.87
2017-08-21T23:05:59.215Z,3.13
2017-08-21T23:08:28.695Z,2.70
2017-08-21T23:10:58.298Z,2.60
2017-08-21T23:13:30.058Z,2.27
2017-08-21T23:16:05.175Z,2.90
2017-08-21T23:18:37.357Z,2.50
2017-08-21T23:21:14.822Z,2.50
2017-08-21T23:23:47.517Z,2.63
2017-08-21T23:26:17.117Z,3.10
2017-08-21T23:28:46.697Z,2.60
2017-08-21T23:31:16.440Z,2.40
2017-08-21T23:33:46.772Z,2.50
2017-08-21T23:36:16.403Z,3.13
2017-08-21T23:38:46.324Z,3.13
2017-08-21T23:41:15.785Z,2.83
2017-08-21T23:43:45.188Z,3.20
2017-08-21T23:46:21.113Z,3.07
2017-08-21T23:48:53.951Z,3.17
2017-08-21T23:51:23.534Z,3.00
2017-08-21T23:53:53.024Z,3.13
2017-08-21T23:56:22.471Z,3.57
2017-08-21T23:58:52.013Z,3.40
